Melrose, Virginia
Current Conditions -  °F | °C
As of 11:54 AM on Tuesday 27 Jan 2015 (Local Time) from KROA Reporting Station
Scattered Clouds Scattered Clouds  
Wind Chill: 31°   Ceiling: Unl
Heat Index: 37°   Visibility: 10mi
Dew Point:   Wind: 8mph
Humidity: 30%   Direction: 320°NW
Pressure: 29.84"   Gusts: NA
Location:  37.2953°N, 79.9917°W
Report Text: KROA 271654Z 32007KT 10SM SCT250 03/M13 A2984 RMK AO2 SLP112 T00281133
Loading
Personal Weather Stations






























Interactive Weather Map New forecast layout! Learn more

10-Day Weather Forecast

Advertisements
Track Severe Weather on mobile